Flight Track Log - Related Links

Times and Time Zones

All times are in EDT time to prevent confusion due to time zone crossing. See the AMX205 flight status page for this flight to view local times or setup timezone preferences in your user account.

Time Position Orientation Groundspeed Altitude Reporting Facility
EDT Latitude Longitude Course Direction KTS MPH feet Rate Location/Type
Fri 07:40:52 AM 22.9590 -101.4440 145° Southeast 485 558 39,000  Level FlightAware ADS-B
Fri 07:41:32 AM 22.8800 -101.3860 146° Southeast 485 558 39,000  Level FlightAware ADS-B
Fri 07:42:12 AM 22.8060 -101.3310 146° Southeast 485 558 39,000  Level FlightAware ADS-B
Fri 07:42:57 AM 22.7320 -101.2760 146° Southeast 485 558 39,000  Level FlightAware ADS-B
Fri 07:43:37 AM 22.6700 -101.2280 144° Southeast 485 558 39,000  Level FlightAware ADS-B
Fri 07:44:17 AM 22.6070 -101.1810 145° Southeast 485 558 39,000  Level FlightAware ADS-B
Fri 07:45:07 AM 22.4790 -101.0930 148° Southeast 484 557 39,000  Level FlightAware ADS-B
Fri 07:45:47 AM 22.4040 -101.0380 146° Southeast 485 558 39,000  Level FlightAware ADS-B
Fri 07:46:27 AM 22.3290 -100.9830 146° Southeast 485 558 39,000  Level FlightAware ADS-B
Fri 07:47:12 AM 22.2530 -100.9150 140° Southeast 500 575 39,000  Level FlightAware ADS-B
Fri 07:47:52 AM 22.1930 -100.8370 130° Southeast 497 572 39,000  Level FlightAware ADS-B
Fri 07:48:32 AM 22.1240 -100.7790 142° Southeast 486 559 39,000  Level FlightAware ADS-B
Fri 07:49:17 AM 22.0370 -100.7140 145° Southeast 485 558 39,000  Level FlightAware ADS-B
Fri 07:49:57 AM 21.9640 -100.6590 145° Southeast 484 557 39,000  Level FlightAware ADS-B
Fri 07:50:42 AM 21.8820 -100.5980 145° Southeast 485 558 39,000  Level FlightAware ADS-B
Fri 07:51:22 AM 21.8090 -100.5440 146° Southeast 484 557 39,000  Level FlightAware ADS-B
Fri 07:52:07 AM 21.7240 -100.4800 145° Southeast 484 557 39,000  Level FlightAware ADS-B
Fri 07:52:47 AM 21.6490 -100.4240 145° Southeast 482 555 39,000  Level FlightAware ADS-B
Fri 07:53:27 AM 21.5760 -100.3710 146° Southeast 482 555 39,000  Level FlightAware ADS-B
Fri 07:54:12 AM 21.4990 -100.3130 145° Southeast 482 555 39,000  Level FlightAware ADS-B
Fri 07:54:47 AM 21.4330 -100.2640 145° Southeast 480 552 39,000  Level FlightAware ADS-B
Fri 07:55:27 AM 21.3630 -100.2130 146° Southeast 480 552 39,000  Level FlightAware ADS-B
Fri 07:56:32 AM 21.2450 -100.1250 145° Southeast 479 551 39,000  Level FlightAware ADS-B
Fri 07:57:22 AM 21.1530 -100.0580 146° Southeast 477 549 39,000  Level FlightAware ADS-B
Fri 07:58:07 AM 21.0780 -100.0010 145° Southeast 477 549 39,000  Level FlightAware ADS-B
Fri 07:58:47 AM 21.0170 -99.9550 145° Southeast 477 549 39,000  Level FlightAware ADS-B
Fri 07:59:27 AM 20.9550 -99.9090 145° Southeast 477 549 39,000  Level FlightAware ADS-B
Fri 08:00:07 AM 20.8940 -99.8630 145° Southeast 477 549 39,000 -2,733 Level FlightAware ADS-B
Fri 08:00:57 AM 20.7600 -99.7690 147° Southeast 480 552 34,900 -4,267 Descending FlightAware ADS-B
Fri 08:01:37 AM 20.6830 -99.7120 145° Southeast 489 563 32,600 -3,000 Descending FlightAware ADS-B
Fri 08:02:17 AM 20.6090 -99.6590 146° Southeast 481 554 30,900 -2,329 Descending FlightAware ADS-B
Fri 08:03:02 AM 20.5290 -99.6010 146° Southeast 467 537 29,300 -1,200 Descending FlightAware ADS-B
Fri 08:03:37 AM 20.4730 -99.5590 145° Southeast 465 535 29,300  Level FlightAware ADS-B
Fri 08:04:27 AM 20.3980 -99.5030 145° Southeast 465 535 29,300  Level FlightAware ADS-B
Fri 08:05:07 AM 20.3380 -99.4580 145° Southeast 465 535 29,300  Level FlightAware ADS-B
Fri 08:05:47 AM 20.2790 -99.4130 144° Southeast 465 535 29,300  Level FlightAware ADS-B
Fri 08:06:27 AM 20.2190 -99.3690 145° Southeast 465 535 29,300 -2,587 Level FlightAware ADS-B
Fri 08:09:00 AM 19.8533 -99.2299 160° South  Level Estimated
Fri 08:09:32 AM 19.9240 -99.1610 160° South 307 353 19,600  Level FlightAware ADS-B
Fri 08:10:17 AM 19.8770 -99.1260 145° Southeast 292 336 18,900 -1,059 Descending FlightAware ADS-B
Fri 08:10:57 AM 19.8320 -99.0940 146° Southeast 284 327 18,100 -640 Descending FlightAware ADS-B
Fri 08:11:32 AM 19.7980 -99.0690 145° Southeast 283 326 18,100  Level FlightAware ADS-B
Fri 08:12:22 AM 19.7530 -99.0350 145° Southeast 283 326 18,100  Level FlightAware ADS-B
Fri 08:13:02 AM 19.7160 -99.0080 146° Southeast 283 326 18,100 -3,164 Level FlightAware ADS-B
Fri 08:13:17 AM 19.6890 -99.1070 254° West 250 288 15,200 -4,036 Descending FlightAware ADS-B
Fri 08:13:57 AM 19.6550 -99.1380 221° Southwest 246 283 14,400 -1,129 Descending FlightAware ADS-B
Fri 08:14:42 AM 19.6150 -99.1740 220° Southwest 225 259 13,600 -1,067 Descending FlightAware ADS-B
Fri 08:15:27 AM 19.5830 -99.2030 220° Southwest 197 227 12,800 -988 Descending FlightAware ADS-B
Fri 08:16:07 AM 19.5560 -99.2250 218° Southwest 180 207 12,200 -960 Descending FlightAware ADS-B
Fri 08:16:17 AM 19.5490 -99.2260 188° South 177 204 12,000 -1,091 Descending FlightAware ADS-B
Fri 08:17:02 AM 19.5120 -99.2170 167° South 167 192 11,200 -988 Descending FlightAware ADS-B
Fri 08:17:42 AM 19.4830 -99.2090 165° South 171 197 10,600 -847 Descending FlightAware ADS-B
Fri 08:18:27 AM 19.4470 -99.2000 167° South 181 208 10,000 -800 Descending FlightAware ADS-B
Fri 08:18:57 AM 19.4220 -99.1930 165° South 183 211 9,600 -982 Descending FlightAware ADS-B
Fri 08:19:22 AM 19.4000 -99.1870 166° South 186 214 9,100 -873 Descending FlightAware ADS-B
Fri 08:19:52 AM 19.3860 -99.1680 128° Southeast 174 200 8,800 -686 Descending FlightAware ADS-B
Fri 08:19:57 AM 19.3860 -99.1670 90° East 175 201 8,700 -1,200 Descending FlightAware ADS-B
Fri 08:20:17 AM 19.3910 -99.1490 74° East 163 188 8,300 -1,029 Descending FlightAware ADS-B
Fri 08:20:32 AM 19.3980 -99.1380 56° Northeast 158 182 8,100 -800 Descending FlightAware ADS-B
Fri 08:21:02 AM 19.4090 -99.1190 58° Northeast 156 180 7,700 -764 Descending FlightAware ADS-B
Fri 08:21:27 AM 19.4160 -99.1050 62° Northeast 151 174 7,400 -360 Descending FlightAware ADS-B
Fri 08:21:52 AM 19.4250 -99.0890 59° Northeast 151 174 7,400  Level FlightAware ADS-B
Fri 08:24:00 AM 19.4363 -99.0721 55° Northeast  Level Estimated
Fri 08:25:00 AM 19.4363 -99.0721 43° Northeast  Level Estimated
Fri 08:26:00 AM 19.4363 -99.0721 43° Northeast  Level Estimated
Fri 08:27:00 AM 19.4363 -99.0721 43° Northeast  Level Estimated
Fri 08:28:00 AM 19.4363 -99.0721 43° Northeast  Level Estimated
Fri 08:29:00 AM 19.4363 -99.0721 43° Northeast  Level Estimated
Fri 08:30:00 AM 19.4363 -99.0721 43° Northeast  Level Estimated
Fri 08:31:00 AM 19.4363 -99.0721 43° Northeast  Level Estimated
Fri 08:32:00 AM 19.4363 -99.0721 43° Northeast  Level Estimated
Fri 08:33:00 AM 19.4363 -99.0721 43° Northeast  Level Estimated
Fri 08:34:00 AM 19.4363 -99.0721 43° Northeast  Level Estimated
Fri 08:35:00 AM 19.4363 -99.0721 43° Northeast  Level Estimated
Fri 08:36:00 AM 19.4363 -99.0721 43° Northeast  Level Estimated
Fri 08:37:00 AM 19.4363 -99.0721 43° Northeast  Level Estimated
Fri 08:38:00 AM 19.4363 -99.0721 43° Northeast  Level Estimated
Fri 08:39:00 AM 19.4363 -99.0721 43° Northeast  Level Estimated
Fri 08:40:00 AM 19.4363 -99.0721 43° Northeast  Level Estimated
Fri 08:41:00 AM 19.4363 -99.0721 43° Northeast  Level Estimated
Fri 08:42:00 AM 19.4363 -99.0721 43° Northeast  Level Estimated
Fri 08:43:00 AM 19.4363 -99.0721 43° Northeast  Level Estimated
Fri 08:44:00 AM 19.4363 -99.0721 43° Northeast  Level Estimated
Fri 08:45:00 AM 19.4363 -99.0721 43° Northeast  Level Estimated

Login

Don't have an account? Register now (free) for customized features, flight alerts, and more!